createdAt,value
2023-05-05T00:00:42.560Z,1.45
2023-05-05T00:03:10.321Z,1.77
2023-05-05T00:05:37.818Z,1.62
2023-05-05T00:08:05.239Z,2.45
2023-05-05T00:10:32.872Z,1.77
2023-05-05T00:13:00.316Z,1.67
2023-05-05T00:15:27.726Z,1.58
2023-05-05T00:17:55.489Z,2.47
2023-05-05T00:20:23.080Z,1.65
2023-05-05T00:22:50.653Z,1.87
2023-05-05T00:25:18.578Z,2.37
2023-05-05T00:27:45.928Z,2.50
2023-05-05T00:30:13.802Z,1.23
2023-05-05T00:32:41.699Z,1.95
2023-05-05T00:35:09.151Z,1.73
2023-05-05T00:37:36.630Z,1.05
2023-05-05T00:40:04.647Z,2.20
2023-05-05T00:42:42.486Z,1.58
2023-05-05T00:45:11.637Z,1.23
2023-05-05T00:47:39.503Z,1.75
2023-05-05T00:50:09.276Z,1.67
2023-05-05T00:52:37.879Z,1.90
2023-05-05T00:55:05.975Z,1.95
2023-05-05T00:57:33.774Z,1.87
2023-05-05T01:00:02.847Z,1.65
2023-05-05T01:02:31.389Z,1.80
2023-05-05T01:04:59.309Z,2.12
2023-05-05T01:07:42.436Z,1.65
2023-05-05T01:10:23.417Z,2.28
2023-05-05T01:13:16.320Z,1.65
2023-05-05T01:16:20.463Z,1.23
2023-05-05T01:18:51.381Z,1.85
2023-05-05T01:21:41.428Z,1.70
2023-05-05T01:24:12.060Z,1.75
2023-05-05T01:27:00.607Z,2.25
2023-05-05T01:29:53.132Z,1.42
2023-05-05T01:32:26.564Z,1.17
2023-05-05T01:35:00.694Z,1.27
2023-05-05T01:37:45.277Z,1.45
2023-05-05T01:40:15.624Z,0.98
2023-05-05T01:42:43.585Z,1.67
2023-05-05T01:45:12.988Z,1.42
2023-05-05T01:47:42.821Z,1.60
2023-05-05T01:50:11.213Z,1.45
2023-05-05T01:52:40.184Z,1.77
2023-05-05T01:55:09.464Z,1.85
2023-05-05T01:57:37.645Z,0.95
2023-05-05T02:00:06.162Z,2.85
2023-05-05T02:02:44.538Z,2.28
2023-05-05T02:05:12.895Z,1.58
2023-05-05T02:07:40.583Z,1.08
2023-05-05T02:10:08.795Z,2.17
2023-05-05T02:12:37.505Z,1.02
2023-05-05T02:15:05.805Z,1.58
2023-05-05T02:17:33.622Z,2.05
2023-05-05T02:20:02.177Z,1.70
2023-05-05T02:22:29.607Z,1.77
2023-05-05T02:24:57.262Z,1.60
2023-05-05T02:27:25.677Z,2.35
2023-05-05T02:29:57.950Z,1.42
2023-05-05T02:32:34.321Z,1.40
2023-05-05T02:35:15.657Z,2.05
2023-05-05T02:37:48.611Z,1.50
2023-05-05T02:40:20.237Z,1.40
2023-05-05T02:42:48.615Z,1.95
2023-05-05T02:45:18.697Z,0.85
2023-05-05T02:47:46.487Z,2.05
2023-05-05T02:50:15.656Z,1.42
2023-05-05T02:52:44.874Z,1.62
2023-05-05T02:55:13.069Z,2.53
2023-05-05T02:57:55.631Z,1.70
2023-05-05T03:00:28.057Z,2.70
2023-05-05T03:03:16.190Z,1.58
2023-05-05T03:05:53.806Z,1.67
2023-05-05T03:08:29.898Z,1.67
2023-05-05T03:11:06.002Z,2.40
2023-05-05T03:13:40.650Z,1.87
2023-05-05T03:16:08.454Z,1.98
2023-05-05T03:18:40.157Z,1.52
2023-05-05T03:21:10.466Z,1.87
2023-05-05T03:23:38.818Z,1.48
2023-05-05T03:26:07.210Z,1.40
2023-05-05T03:28:34.875Z,1.42
2023-05-05T03:31:03.454Z,1.95
2023-05-05T03:33:31.832Z,1.52
2023-05-05T03:35:59.655Z,2.37
2023-05-05T03:38:27.579Z,1.55
2023-05-05T03:40:55.893Z,1.27
2023-05-05T03:43:23.472Z,1.37
2023-05-05T03:45:51.410Z,1.52
2023-05-05T03:48:18.910Z,2.33
2023-05-05T03:50:46.603Z,1.45
2023-05-05T03:53:14.800Z,1.73
2023-05-05T03:55:42.663Z,1.33
2023-05-05T03:58:11.589Z,2.83
2023-05-05T04:00:39.297Z,1.67
2023-05-05T04:03:07.411Z,1.73
2023-05-05T04:05:34.982Z,2.05
2023-05-05T04:08:03.389Z,1.83
2023-05-05T04:10:31.585Z,1.87
2023-05-05T04:12:59.228Z,2.30
2023-05-05T04:15:27.590Z,1.75
2023-05-05T04:17:55.702Z,1.52
2023-05-05T04:20:23.284Z,1.95
2023-05-05T04:22:52.768Z,2.05
2023-05-05T04:25:20.972Z,1.95
2023-05-05T04:27:48.546Z,1.67
2023-05-05T04:30:16.377Z,1.70
2023-05-05T04:32:44.232Z,1.62
2023-05-05T04:35:11.811Z,1.48
2023-05-05T04:37:39.622Z,1.67
2023-05-05T04:40:08.368Z,1.85
2023-05-05T04:42:36.658Z,1.10
2023-05-05T04:45:04.804Z,1.37
2023-05-05T04:47:37.058Z,1.27
2023-05-05T04:50:05.395Z,1.70
2023-05-05T04:52:33.274Z,1.30
2023-05-05T04:55:01.229Z,1.73
2023-05-05T04:57:29.968Z,1.60
2023-05-05T04:59:59.568Z,1.75
2023-05-05T05:02:27.257Z,2.17
2023-05-05T05:04:54.636Z,1.23
2023-05-05T05:07:22.511Z,1.67
2023-05-05T05:09:50.990Z,2.17
2023-05-05T05:12:18.657Z,1.73
2023-05-05T05:14:46.288Z,1.65
2023-05-05T05:17:13.859Z,1.27
2023-05-05T05:19:42.558Z,2.25
2023-05-05T05:22:10.792Z,2.72
2023-05-05T05:24:38.816Z,2.35
2023-05-05T05:27:10.203Z,3.10
2023-05-05T05:29:38.595Z,2.70
2023-05-05T05:32:06.384Z,1.80
2023-05-05T05:34:34.428Z,2.17
2023-05-05T05:37:03.016Z,2.92
2023-05-05T05:39:30.733Z,2.22
2023-05-05T05:41:58.196Z,2.75
2023-05-05T05:44:26.009Z,2.42
2023-05-05T05:46:53.567Z,2.15
2023-05-05T05:49:20.956Z,1.73
2023-05-05T05:51:48.924Z,2.12
2023-05-05T05:54:16.406Z,2.15
2023-05-05T05:56:44.181Z,2.33
2023-05-05T05:59:12.505Z,2.80
2023-05-05T06:01:40.472Z,1.65
2023-05-05T06:04:08.680Z,1.77
2023-05-05T06:06:38.066Z,2.33
2023-05-05T06:09:05.939Z,1.48
2023-05-05T06:11:35.046Z,1.98
2023-05-05T06:14:02.918Z,2.53
2023-05-05T06:16:30.571Z,2.03
2023-05-05T06:18:59.093Z,1.75
2023-05-05T06:21:27.870Z,2.08
2023-05-05T06:23:55.421Z,1.92
2023-05-05T06:26:23.211Z,2.47
2023-05-05T06:28:50.597Z,3.00
2023-05-05T06:31:18.336Z,3.62
2023-05-05T06:33:46.012Z,2.20
2023-05-05T06:36:13.436Z,2.70
2023-05-05T06:38:41.391Z,3.55
2023-05-05T06:41:09.061Z,2.20
2023-05-05T06:43:36.598Z,1.70
2023-05-05T06:46:05.759Z,2.33
2023-05-05T06:48:33.413Z,2.28
2023-05-05T06:51:00.907Z,2.47
2023-05-05T06:53:28.346Z,2.20
2023-05-05T06:55:56.007Z,2.90
2023-05-05T06:58:23.434Z,1.75
2023-05-05T07:00:50.908Z,2.03
2023-05-05T07:03:18.771Z,2.62
2023-05-05T07:05:46.204Z,1.85
2023-05-05T07:08:13.548Z,2.03
2023-05-05T07:10:41.847Z,2.40
2023-05-05T07:13:09.310Z,2.78
2023-05-05T07:15:37.169Z,2.30
2023-05-05T07:18:04.871Z,1.58
2023-05-05T07:20:32.306Z,2.90
2023-05-05T07:22:59.720Z,2.45
2023-05-05T07:25:27.374Z,1.92
2023-05-05T07:27:55.082Z,2.08
2023-05-05T07:30:23.154Z,2.67
2023-05-05T07:32:51.354Z,2.53
2023-05-05T07:35:18.908Z,2.58
2023-05-05T07:37:46.514Z,2.90
2023-05-05T07:40:14.339Z,2.47
2023-05-05T07:42:42.083Z,2.25
2023-05-05T07:45:09.712Z,2.60
2023-05-05T07:47:37.446Z,1.75
2023-05-05T07:50:05.460Z,3.50
2023-05-05T07:52:44.999Z,2.65
2023-05-05T07:55:15.892Z,3.15
2023-05-05T07:57:43.309Z,2.05
2023-05-05T08:00:11.611Z,2.97
2023-05-05T08:02:39.764Z,2.78
2023-05-05T08:05:08.228Z,2.25
2023-05-05T08:07:38.204Z,3.55
2023-05-05T08:10:06.066Z,3.65
2023-05-05T08:12:33.837Z,2.75
2023-05-05T08:15:01.355Z,3.62
2023-05-05T08:17:28.813Z,3.25
2023-05-05T08:19:56.492Z,2.80
2023-05-05T08:22:23.933Z,2.90
2023-05-05T08:24:51.590Z,3.28
2023-05-05T08:27:19.350Z,3.25
2023-05-05T08:29:46.740Z,2.78
2023-05-05T08:32:16.219Z,3.00
2023-05-05T08:34:44.035Z,2.95
2023-05-05T08:37:11.413Z,2.47
2023-05-05T08:39:38.840Z,2.95
2023-05-05T08:42:06.700Z,2.90
2023-05-05T08:44:34.105Z,3.97
2023-05-05T08:47:02.243Z,3.92
2023-05-05T08:49:33.026Z,3.33
2023-05-05T08:52:01.876Z,4.20
2023-05-05T08:54:31.027Z,2.92
2023-05-05T08:57:01.884Z,3.70
2023-05-05T08:59:32.974Z,4.15
2023-05-05T09:02:01.618Z,4.43
2023-05-05T09:04:29.227Z,4.50
2023-05-05T09:07:00.016Z,3.72
2023-05-05T09:09:27.908Z,4.62
2023-05-05T09:11:56.078Z,3.35
2023-05-05T09:14:23.471Z,3.20
2023-05-05T09:16:51.336Z,4.20
2023-05-05T09:19:18.926Z,3.90
2023-05-05T09:21:49.701Z,3.12
2023-05-05T09:24:17.533Z,4.43
2023-05-05T09:26:46.526Z,4.95
2023-05-05T09:29:21.014Z,3.83
2023-05-05T09:32:05.645Z,3.33
2023-05-05T09:34:34.992Z,3.50
2023-05-05T09:37:03.469Z,3.53
2023-05-05T09:39:31.004Z,3.60
2023-05-05T09:41:58.566Z,4.85
2023-05-05T09:44:37.488Z,3.37
2023-05-05T09:47:09.418Z,4.22
2023-05-05T09:52:14.974Z,3.92
2023-05-05T09:54:43.816Z,3.30
2023-05-05T09:57:33.894Z,3.58
2023-05-05T10:00:02.608Z,3.35
2023-05-05T10:02:39.371Z,3.95
2023-05-05T10:05:15.995Z,4.40
2023-05-05T10:07:45.283Z,3.47
2023-05-05T10:10:16.174Z,4.07
2023-05-05T10:12:46.630Z,2.92
2023-05-05T10:15:15.702Z,3.67
2023-05-05T10:20:21.175Z,3.55
2023-05-05T10:22:52.734Z,3.37
2023-05-05T10:25:31.480Z,3.87
2023-05-05T10:28:06.409Z,3.03
2023-05-05T10:30:37.183Z,3.15
2023-05-05T10:33:30.268Z,3.42
2023-05-05T10:36:01.860Z,4.32
2023-05-05T10:38:31.019Z,4.40
2023-05-05T10:41:00.739Z,4.20
2023-05-05T10:43:30.150Z,3.33
2023-05-05T10:45:58.345Z,4.10
2023-05-05T10:49:01.968Z,4.00
2023-05-05T10:51:40.681Z,5.12
2023-05-05T10:54:16.979Z,5.00
2023-05-05T10:56:44.525Z,4.40
2023-05-05T10:59:37.110Z,4.90
2023-05-05T11:02:24.185Z,4.15
2023-05-05T11:05:14.970Z,5.20
2023-05-05T11:07:43.713Z,3.55
2023-05-05T11:10:13.054Z,4.40
2023-05-05T11:12:52.600Z,3.67
2023-05-05T11:15:26.500Z,3.70
2023-05-05T11:17:58.252Z,4.25
2023-05-05T11:20:40.983Z,4.75
2023-05-05T11:23:08.310Z,3.40
2023-05-05T11:25:42.125Z,4.57
2023-05-05T11:28:12.951Z,4.28
2023-05-05T11:30:56.400Z,5.05
2023-05-05T11:33:29.397Z,4.62
2023-05-05T11:36:07.833Z,5.53
2023-05-05T11:39:12.919Z,3.87
2023-05-05T11:41:57.640Z,3.55
2023-05-05T11:44:34.557Z,3.70
2023-05-05T11:47:05.069Z,3.83
2023-05-05T11:49:34.526Z,3.55
2023-05-05T11:52:09.623Z,3.47
2023-05-05T11:57:07.285Z,3.40
2023-05-05T11:59:38.866Z,3.28
2023-05-05T12:02:06.520Z,2.95
2023-05-05T12:04:39.506Z,4.03
2023-05-05T12:07:06.972Z,2.92
2023-05-05T12:09:34.627Z,4.20
2023-05-05T12:12:02.718Z,3.53
2023-05-05T12:14:30.113Z,3.80
2023-05-05T12:17:03.458Z,3.53
2023-05-05T12:19:33.398Z,4.28
2023-05-05T12:22:02.099Z,5.78
2023-05-05T12:24:32.454Z,5.37
2023-05-05T12:27:10.648Z,3.65
2023-05-05T12:29:38.326Z,5.03
2023-05-05T12:32:05.913Z,3.00
2023-05-05T12:34:33.507Z,4.10
2023-05-05T12:37:01.521Z,4.20
2023-05-05T12:39:38.304Z,4.20
2023-05-05T12:42:06.423Z,3.45
2023-05-05T12:44:40.781Z,3.58
2023-05-05T12:47:08.549Z,3.55
2023-05-05T12:49:50.082Z,7.30
2023-05-05T12:52:18.390Z,5.60
2023-05-05T12:54:59.605Z,3.90
2023-05-05T12:57:27.335Z,4.78
2023-05-05T12:59:54.777Z,4.78
2023-05-05T13:02:33.913Z,5.28
2023-05-05T13:05:01.698Z,3.70
2023-05-05T13:07:29.092Z,4.12
2023-05-05T13:10:08.246Z,4.57
2023-05-05T13:12:36.124Z,4.93
2023-05-05T13:15:03.997Z,3.08
2023-05-05T13:17:34.075Z,3.37
2023-05-05T13:20:02.467Z,4.03
2023-05-05T13:22:29.908Z,3.83
2023-05-05T13:24:57.286Z,4.28
2023-05-05T13:27:24.994Z,3.03
2023-05-05T13:29:52.403Z,2.95
2023-05-05T13:32:19.833Z,3.33
2023-05-05T13:34:47.511Z,3.25
2023-05-05T13:37:14.981Z,3.72
2023-05-05T13:39:43.329Z,3.30
2023-05-05T13:42:11.194Z,3.05
2023-05-05T13:44:38.697Z,3.08
2023-05-05T13:47:06.186Z,3.50
2023-05-05T13:49:35.130Z,3.35
2023-05-05T13:52:03.080Z,3.42
2023-05-05T13:54:30.627Z,3.47
2023-05-05T13:56:58.525Z,3.75
2023-05-05T13:59:25.957Z,3.97
2023-05-05T14:01:53.372Z,3.92
2023-05-05T14:04:21.084Z,3.58
2023-05-05T14:06:48.677Z,3.97
2023-05-05T14:09:16.350Z,3.55
2023-05-05T14:11:44.063Z,3.37
2023-05-05T14:14:11.493Z,3.50
2023-05-05T14:16:38.998Z,2.97
2023-05-05T14:19:06.706Z,3.67
2023-05-05T14:21:34.078Z,3.83
2023-05-05T14:24:01.527Z,3.28
2023-05-05T14:26:29.225Z,2.67
2023-05-05T14:28:56.634Z,2.35
2023-05-05T14:31:24.074Z,3.12
2023-05-05T14:33:51.761Z,3.17
2023-05-05T14:36:19.301Z,4.00
2023-05-05T14:38:46.900Z,4.05
2023-05-05T14:41:14.678Z,2.85
2023-05-05T14:43:42.072Z,3.25
2023-05-05T14:46:09.566Z,3.85
2023-05-05T14:48:37.688Z,2.75
2023-05-05T14:51:05.101Z,3.80
2023-05-05T14:53:32.572Z,3.20
2023-05-05T14:56:00.889Z,4.37
2023-05-05T14:58:28.297Z,2.37
2023-05-05T15:00:55.842Z,2.75
2023-05-05T15:03:23.701Z,2.67
2023-05-05T15:05:51.145Z,2.28
2023-05-05T15:08:21.267Z,2.58
2023-05-05T15:10:48.956Z,2.78
2023-05-05T15:13:17.206Z,2.45
2023-05-05T15:15:45.221Z,2.55
2023-05-05T15:18:12.946Z,2.25
2023-05-05T15:20:40.382Z,2.45
2023-05-05T15:23:07.865Z,2.65
2023-05-05T15:25:35.688Z,3.10
2023-05-05T15:28:03.133Z,2.65
2023-05-05T15:30:30.730Z,2.22
2023-05-05T15:32:58.655Z,3.05
2023-05-05T15:35:26.113Z,2.70
2023-05-05T15:37:54.416Z,2.58
2023-05-05T15:40:22.280Z,2.60
2023-05-05T15:42:49.936Z,2.85
2023-05-05T15:45:17.553Z,2.03
2023-05-05T15:47:46.144Z,2.62
2023-05-05T15:50:14.136Z,2.95
2023-05-05T15:52:41.758Z,2.97
2023-05-05T15:55:10.239Z,2.70
2023-05-05T15:57:39.877Z,2.83
2023-05-05T16:00:08.539Z,2.08
2023-05-05T16:02:35.996Z,2.70
2023-05-05T16:05:04.589Z,2.62
2023-05-05T16:07:32.062Z,2.12
2023-05-05T16:09:59.452Z,2.90
2023-05-05T16:12:28.161Z,1.62
2023-05-05T16:14:55.787Z,2.33
2023-05-05T16:17:23.180Z,3.05
2023-05-05T16:19:50.967Z,2.72
2023-05-05T16:22:18.425Z,1.92
2023-05-05T16:24:45.848Z,2.90
2023-05-05T16:27:14.745Z,2.25
2023-05-05T16:29:42.167Z,2.33
2023-05-05T16:32:09.579Z,3.15
2023-05-05T16:34:37.338Z,2.20
2023-05-05T16:37:04.815Z,2.75
2023-05-05T16:39:33.076Z,1.80
2023-05-05T16:42:00.818Z,1.98
2023-05-05T16:44:28.236Z,2.33
2023-05-05T16:46:55.646Z,1.95
2023-05-05T16:49:24.273Z,2.17
2023-05-05T16:51:53.485Z,2.37
2023-05-05T16:54:20.929Z,2.95
2023-05-05T16:56:48.627Z,2.80
2023-05-05T16:59:18.371Z,2.45
2023-05-05T17:01:46.771Z,2.10
2023-05-05T17:04:14.738Z,2.85
2023-05-05T17:06:42.484Z,2.10
2023-05-05T17:09:09.890Z,2.20
2023-05-05T17:11:37.537Z,1.73
2023-05-05T17:14:04.982Z,2.92
2023-05-05T17:16:32.604Z,1.67
2023-05-05T17:19:00.660Z,2.22
2023-05-05T17:21:28.098Z,1.95
2023-05-05T17:23:55.526Z,2.37
2023-05-05T17:26:23.152Z,2.72
2023-05-05T17:28:50.579Z,1.77
2023-05-05T17:31:18.047Z,3.00
2023-05-05T17:33:45.747Z,2.60
2023-05-05T17:36:13.132Z,2.40
2023-05-05T17:38:40.574Z,3.00
2023-05-05T17:41:08.252Z,3.17
2023-05-05T17:43:35.629Z,2.22
2023-05-05T17:46:03.076Z,2.58
2023-05-05T17:48:30.811Z,2.67
2023-05-05T17:50:58.221Z,1.83
2023-05-05T17:53:26.458Z,3.70
2023-05-05T17:55:54.555Z,2.67
2023-05-05T17:58:22.007Z,3.58
2023-05-05T18:00:49.490Z,2.33
2023-05-05T18:03:17.370Z,2.92
2023-05-05T18:05:44.955Z,2.85
2023-05-05T18:08:12.452Z,2.55
2023-05-05T18:10:40.109Z,2.37
2023-05-05T18:13:07.911Z,2.53
2023-05-05T18:15:35.418Z,2.78
2023-05-05T18:18:03.271Z,3.53
2023-05-05T18:20:30.809Z,2.87
2023-05-05T18:22:58.221Z,1.77
2023-05-05T18:25:26.200Z,2.45
2023-05-05T18:27:53.690Z,2.75
2023-05-05T18:30:21.056Z,3.28
2023-05-05T18:32:48.890Z,2.70
2023-05-05T18:35:16.685Z,3.55
2023-05-05T18:37:44.106Z,3.42
2023-05-05T18:40:12.273Z,2.90
2023-05-05T18:42:39.726Z,1.77
2023-05-05T18:45:08.689Z,3.05
2023-05-05T18:47:37.605Z,2.78
2023-05-05T18:50:06.267Z,2.25
2023-05-05T18:52:33.842Z,3.20
2023-05-05T18:55:01.999Z,3.35
2023-05-05T18:57:29.789Z,2.55
2023-05-05T18:59:57.207Z,2.78
2023-05-05T19:02:24.999Z,2.35
2023-05-05T19:04:52.442Z,2.62
2023-05-05T19:07:33.887Z,3.28
2023-05-05T19:10:06.491Z,2.37
2023-05-05T19:12:33.944Z,2.33
2023-05-05T19:15:01.415Z,2.22
2023-05-05T19:17:29.376Z,2.12
2023-05-05T19:19:56.802Z,2.72
2023-05-05T19:22:24.156Z,3.10
2023-05-05T19:24:51.773Z,2.78
2023-05-05T19:27:19.159Z,2.60
2023-05-05T19:29:49.163Z,1.60
2023-05-05T19:32:16.933Z,2.80
2023-05-05T19:34:44.387Z,2.47
2023-05-05T19:37:11.885Z,2.17
2023-05-05T19:39:39.985Z,1.80
2023-05-05T19:42:07.446Z,2.45
2023-05-05T19:44:34.859Z,2.75
2023-05-05T19:47:02.650Z,3.03
2023-05-05T19:49:30.061Z,2.03
2023-05-05T19:51:58.916Z,2.78
2023-05-05T19:54:27.488Z,1.90
2023-05-05T19:56:57.275Z,2.62
2023-05-05T19:59:24.922Z,2.28
2023-05-05T20:01:52.679Z,2.17
2023-05-05T20:04:37.329Z,3.00
2023-05-05T20:07:05.243Z,2.90
2023-05-05T20:09:32.644Z,2.95
2023-05-05T20:12:00.094Z,2.65
2023-05-05T20:14:27.797Z,2.15
2023-05-05T20:16:55.202Z,3.22
2023-05-05T20:19:22.939Z,3.53
2023-05-05T20:21:50.652Z,2.50
2023-05-05T20:24:18.154Z,3.25
2023-05-05T20:26:45.698Z,2.90
2023-05-05T20:29:15.143Z,2.65
2023-05-05T20:31:42.609Z,1.98
2023-05-05T20:34:10.114Z,1.60
2023-05-05T20:36:37.862Z,2.50
2023-05-05T20:39:05.324Z,2.37
2023-05-05T20:41:32.815Z,2.62
2023-05-05T20:44:00.739Z,3.65
2023-05-05T20:46:28.260Z,2.20
2023-05-05T20:48:55.922Z,2.53
2023-05-05T20:51:23.625Z,2.97
2023-05-05T20:53:51.129Z,2.87
2023-05-05T20:56:18.638Z,4.12
2023-05-05T20:58:46.288Z,2.28
2023-05-05T21:01:13.818Z,3.47
2023-05-05T21:03:41.303Z,2.40
2023-05-05T21:06:08.999Z,2.37
2023-05-05T21:08:36.457Z,3.22
2023-05-05T21:11:08.744Z,2.17
2023-05-05T21:13:36.539Z,3.03
2023-05-05T21:16:04.077Z,2.92
2023-05-05T21:18:31.492Z,3.47
2023-05-05T21:20:59.415Z,2.28
2023-05-05T21:23:26.773Z,3.22
2023-05-05T21:25:54.199Z,2.62
2023-05-05T21:28:21.915Z,2.17
2023-05-05T21:31:10.273Z,2.70
2023-05-05T21:33:39.102Z,3.33
2023-05-05T21:36:06.542Z,2.65
2023-05-05T21:38:34.020Z,2.12
2023-05-05T21:41:02.405Z,2.58
2023-05-05T21:43:29.781Z,2.42
2023-05-05T21:46:03.716Z,2.25
2023-05-05T21:48:31.854Z,2.65
2023-05-05T21:50:59.361Z,3.10
2023-05-05T21:53:26.977Z,2.42
2023-05-05T21:55:55.236Z,3.10
2023-05-05T21:58:24.679Z,2.05
2023-05-05T22:00:52.536Z,1.95
2023-05-05T22:03:20.852Z,2.37
2023-05-05T22:05:48.350Z,2.70
2023-05-05T22:08:15.760Z,2.00
2023-05-05T22:10:43.536Z,2.95
2023-05-05T22:13:11.079Z,2.50
2023-05-05T22:15:46.181Z,2.85
2023-05-05T22:18:15.469Z,3.58
2023-05-05T22:20:43.323Z,2.78
2023-05-05T22:23:10.810Z,2.12
2023-05-05T22:25:38.474Z,2.35
2023-05-05T22:28:05.916Z,3.00
2023-05-05T22:30:33.388Z,2.20
2023-05-05T22:33:01.131Z,2.20
2023-05-05T22:35:28.508Z,2.40
2023-05-05T22:37:55.939Z,2.90
2023-05-05T22:40:23.690Z,2.08
2023-05-05T22:42:51.154Z,2.33
2023-05-05T22:45:18.591Z,2.45
2023-05-05T22:47:46.247Z,2.67
2023-05-05T22:50:13.663Z,2.67
2023-05-05T22:52:41.098Z,1.98
2023-05-05T22:55:09.207Z,2.33
2023-05-05T22:57:36.878Z,1.80
2023-05-05T23:00:05.403Z,2.12
2023-05-05T23:02:33.763Z,2.42
2023-05-05T23:05:01.258Z,2.70
2023-05-05T23:07:29.010Z,1.77
2023-05-05T23:09:56.678Z,2.78
2023-05-05T23:12:24.089Z,1.60
2023-05-05T23:14:52.029Z,2.62
2023-05-05T23:17:19.816Z,1.10
2023-05-05T23:19:48.108Z,2.75
2023-05-05T23:22:15.634Z,1.77
2023-05-05T23:24:43.256Z,2.42
2023-05-05T23:27:10.748Z,2.37
2023-05-05T23:29:38.152Z,3.53
2023-05-05T23:32:06.362Z,2.47
2023-05-05T23:34:33.730Z,2.30
2023-05-05T23:37:01.743Z,2.58
2023-05-05T23:39:31.214Z,2.00
2023-05-05T23:41:58.609Z,2.03
2023-05-05T23:44:26.074Z,1.92
2023-05-05T23:46:53.724Z,1.85
2023-05-05T23:49:21.327Z,2.97
2023-05-05T23:51:48.823Z,2.80
2023-05-05T23:54:16.487Z,2.35
2023-05-05T23:56:43.907Z,2.42
2023-05-05T23:59:11.334Z,1.90
